Time;durP1;ratioP1;P1;durP2;ratioP2;P2;SDS_P1;SDS_P2;PMS_P1;PMS_P2;Temp;Humidity;BMP_temperature;BMP_pressure;BME280_temperature;BME280_humidity;BME280_pressure;Samples;Min_cycle;Max_cycle;Signal;HPM_P1;HPM_P2
2022/07/27 00:01:17;;;;;;;2.57;1.20;;;;;;;18.96;100.00;99142.34;5110638;28;20226;-78
2022/07/27 00:03:45;;;;;;;2.13;1.10;;;;;;;18.95;100.00;99137.97;5112183;28;20247;-78
2022/07/27 00:06:16;;;;;;;1.30;1.10;;;;;;;18.75;100.00;99134.56;5113142;28;20267;-78
2022/07/27 00:08:44;;;;;;;1.60;1.20;;;;;;;18.71;100.00;99137.69;5116079;28;20255;-78
2022/07/27 00:11:12;;;;;;;3.20;1.30;;;;;;;18.63;100.00;99141.13;5116322;28;20244;-78
2022/07/27 00:13:43;;;;;;;2.63;1.50;;;;;;;18.78;100.00;99141.47;5114927;27;20195;-78
2022/07/27 00:16:12;;;;;;;1.77;1.17;;;;;;;18.73;100.00;99138.41;5115942;27;20248;-78
2022/07/27 00:18:40;;;;;;;3.70;1.70;;;;;;;18.68;100.00;99133.47;5115981;28;20206;-78
2022/07/27 00:21:09;;;;;;;4.03;1.90;;;;;;;18.69;100.00;99135.16;5113471;28;20202;-78
2022/07/27 00:23:37;;;;;;;3.60;1.50;;;;;;;18.84;100.00;99128.31;5116206;28;20233;-78
2022/07/27 00:26:05;;;;;;;6.17;1.80;;;;;;;18.78;100.00;99134.25;5111034;28;20195;-78
2022/07/27 00:28:34;;;;;;;5.90;1.80;;;;;;;18.84;100.00;99138.19;5118155;28;20202;-78
2022/07/27 00:31:03;;;;;;;3.20;1.63;;;;;;;18.87;100.00;99132.50;5117776;27;20661;-78
2022/07/27 00:33:32;;;;;;;4.07;1.63;;;;;;;18.90;100.00;99126.84;5110544;28;20207;-78
2022/07/27 00:36:01;;;;;;;3.33;1.63;;;;;;;18.86;100.00;99129.00;5114602;28;20646;-78
2022/07/27 00:38:30;;;;;;;4.07;1.63;;;;;;;18.83;100.00;99131.97;5115151;28;20198;-78
2022/07/27 00:40:59;;;;;;;2.17;1.40;;;;;;;18.88;100.00;99139.56;5115211;28;20199;-78
2022/07/27 00:43:29;;;;;;;1.77;1.10;;;;;;;18.72;100.00;99132.19;5115355;28;20710;-78
2022/07/27 00:45:57;;;;;;;2.33;1.10;;;;;;;18.59;100.00;99135.19;5112136;28;20199;-78
2022/07/27 00:48:28;;;;;;;3.47;1.20;;;;;;;18.21;100.00;99138.06;5117285;27;20206;-78
2022/07/27 00:50:59;;;;;;;2.23;1.40;;;;;;;18.13;100.00;99143.28;5108335;28;20258;-78
2022/07/27 00:53:27;;;;;;;1.27;1.17;;;;;;;18.19;100.00;99137.34;5117825;27;20211;-78
2022/07/27 00:55:55;;;;;;;2.37;1.43;;;;;;;18.09;100.00;99139.22;5115350;28;20187;-78
2022/07/27 00:58:25;;;;;;;4.00;1.40;;;;;;;18.10;100.00;99136.41;5108132;28;20203;-78
2022/07/27 01:00:53;;;;;;;2.10;1.13;;;;;;;18.18;100.00;99128.47;5112416;28;20194;-78
2022/07/27 01:03:22;;;;;;;1.67;1.10;;;;;;;18.08;100.00;99121.47;5108781;28;20203;-78
2022/07/27 01:05:58;;;;;;;5.47;1.30;;;;;;;18.33;100.00;99139.53;5111574;28;20210;-78
2022/07/27 01:08:29;;;;;;;3.40;1.33;;;;;;;18.30;100.00;99138.00;5049354;28;20193;-78
2022/07/27 01:10:59;;;;;;;2.83;1.33;;;;;;;18.08;100.00;99146.44;5048048;28;20200;-78
2022/07/27 01:13:27;;;;;;;2.93;1.40;;;;;;;18.03;100.00;99140.66;5048410;28;20208;-78
2022/07/27 01:15:56;;;;;;;2.20;1.10;;;;;;;18.02;100.00;99147.84;5042747;28;20208;-78
2022/07/27 01:18:30;;;;;;;3.67;1.10;;;;;;;18.02;100.00;99144.31;5040925;28;20216;-78
2022/07/27 01:21:03;;;;;;;3.60;1.23;;;;;;;17.99;100.00;99141.94;5050970;28;20212;-78
2022/07/27 01:23:33;;;;;;;2.37;1.40;;;;;;;18.11;100.00;99154.19;5049479;28;20204;-78
2022/07/27 01:26:03;;;;;;;3.43;1.43;;;;;;;18.02;100.00;99152.38;5067209;28;20211;-78
2022/07/27 01:28:31;;;;;;;3.47;1.27;;;;;;;18.12;100.00;99149.66;5109192;28;20206;-78
2022/07/27 01:30:59;;;;;;;2.33;1.40;;;;;;;18.03;100.00;99146.84;5107576;28;20685;-78
2022/07/27 01:33:28;;;;;;;3.07;1.33;;;;;;;18.23;100.00;99149.47;5114459;28;20191;-78
2022/07/27 01:35:57;;;;;;;4.47;1.40;;;;;;;18.04;100.00;99139.66;5113457;28;20286;-78
2022/07/27 01:38:26;;;;;;;2.77;1.17;;;;;;;17.77;100.00;99137.78;5114707;28;20201;-78
2022/07/27 01:40:56;;;;;;;5.77;1.50;;;;;;;17.89;100.00;99147.34;5114215;28;20198;-78
2022/07/27 01:43:24;;;;;;;2.70;1.27;;;;;;;17.83;100.00;99147.06;5113963;28;20197;-78
2022/07/27 01:45:52;;;;;;;3.80;1.57;;;;;;;17.94;100.00;99145.03;5114213;28;20225;-78
2022/07/27 01:48:20;;;;;;;3.10;1.70;;;;;;;17.97;100.00;99143.94;5114260;27;20234;-78
2022/07/27 01:50:49;;;;;;;3.53;1.50;;;;;;;17.78;100.00;99154.69;5107626;28;20223;-78
2022/07/27 01:53:18;;;;;;;2.80;1.30;;;;;;;17.76;100.00;99145.94;5095665;28;20225;-78
2022/07/27 01:55:47;;;;;;;3.47;1.33;;;;;;;17.84;100.00;99151.41;5113527;27;20201;-78
2022/07/27 01:58:17;;;;;;;3.50;1.30;;;;;;;17.93;100.00;99158.59;5114179;28;20222;-78
2022/07/27 02:00:45;;;;;;;1.97;1.30;;;;;;;17.83;100.00;99155.09;5115835;27;20193;-78
2022/07/27 02:03:14;;;;;;;3.67;1.27;;;;;;;18.05;100.00;99151.22;5113776;28;20191;-78
2022/07/27 02:05:42;;;;;;;3.53;1.47;;;;;;;17.93;100.00;99154.06;5107803;28;20299;-78
2022/07/27 02:08:12;;;;;;;5.30;1.47;;;;;;;17.88;100.00;99153.69;5116425;27;20203;-78
2022/07/27 02:12:34;;;;;;;5.80;1.50;;;;;;;17.99;100.00;99148.16;5107743;28;20223;-78
2022/07/27 02:13:29;;;;;;;5.50;1.37;;;;;;;17.96;100.00;99148.44;5113813;28;20203;-78
2022/07/27 02:15:57;;;;;;;5.77;1.30;;;;;;;18.10;100.00;99143.59;5110705;28;20195;-78
2022/07/27 02:18:26;;;;;;;2.83;1.10;;;;;;;17.93;100.00;99142.50;5108394;28;20270;-78
2022/07/27 02:21:03;;;;;;;4.57;1.63;;;;;;;17.74;100.00;99135.38;5112336;28;20187;-78
2022/07/27 02:23:32;;;;;;;3.53;1.33;;;;;;;17.86;100.00;99138.75;5109409;28;20203;-78
2022/07/27 02:26:00;;;;;;;5.53;1.40;;;;;;;17.84;100.00;99136.19;5111976;28;20226;-78
2022/07/27 02:28:30;;;;;;;3.63;1.57;;;;;;;17.76;100.00;99148.63;5113756;28;20371;-78
2022/07/27 02:30:59;;;;;;;5.37;1.50;;;;;;;17.78;100.00;99147.50;5113825;28;20203;-78
2022/07/27 02:33:28;;;;;;;3.03;1.40;;;;;;;17.43;100.00;99138.19;5113167;28;20187;-78
2022/07/27 02:35:57;;;;;;;4.10;1.73;;;;;;;17.51;100.00;99137.50;5111699;28;20194;-78
2022/07/27 02:38:25;;;;;;;4.53;1.40;;;;;;;17.47;100.00;99144.13;5113589;28;20194;-78
2022/07/27 02:40:53;;;;;;;2.83;1.43;;;;;;;17.37;100.00;99146.81;5108827;28;20680;-78
2022/07/27 02:43:22;;;;;;;3.87;1.70;;;;;;;17.48;100.00;99144.97;5115024;27;20198;-78
2022/07/27 02:45:51;;;;;;;6.70;1.40;;;;;;;17.44;100.00;99147.09;5111018;28;20215;-78
2022/07/27 02:48:20;;;;;;;3.67;1.50;;;;;;;17.45;100.00;99141.56;5113506;28;20220;-78
2022/07/27 02:50:48;;;;;;;5.63;1.60;;;;;;;17.44;100.00;99137.22;5111766;28;20235;-78
2022/07/27 02:53:17;;;;;;;4.63;1.37;;;;;;;17.48;100.00;99135.13;5113423;28;20277;-78
2022/07/27 02:55:45;;;;;;;4.87;1.43;;;;;;;17.48;100.00;99127.06;5108424;28;20236;-78
2022/07/27 02:58:13;;;;;;;4.70;1.70;;;;;;;17.62;100.00;99141.84;5111966;28;20203;-78
2022/07/27 03:00:43;;;;;;;4.60;1.53;;;;;;;17.66;100.00;99127.16;5113031;28;20191;-78
2022/07/27 03:03:13;;;;;;;5.00;1.57;;;;;;;17.72;100.00;99132.00;5117975;27;20255;-78
2022/07/27 03:05:42;;;;;;;4.47;1.50;;;;;;;17.77;100.00;99128.91;5115742;27;20704;-78
2022/07/27 03:08:10;;;;;;;3.90;1.60;;;;;;;17.85;100.00;99124.47;5111957;28;20278;-78
2022/07/27 03:10:38;;;;;;;6.23;1.63;;;;;;;17.55;100.00;99121.97;5117050;28;20209;-78
2022/07/27 03:13:06;;;;;;;3.83;1.50;;;;;;;17.65;100.00;99120.13;5118763;27;20191;-78
2022/07/27 03:15:35;;;;;;;5.83;1.53;;;;;;;17.68;100.00;99133.25;5117201;28;20203;-78
2022/07/27 03:18:04;;;;;;;2.33;1.40;;;;;;;17.73;100.00;99123.81;5119370;27;20202;-78
2022/07/27 03:20:34;;;;;;;3.03;1.40;;;;;;;17.72;100.00;99130.16;5110912;28;20316;-78
2022/07/27 03:23:02;;;;;;;5.47;1.57;;;;;;;17.57;100.00;99128.06;5114840;28;20207;-78
2022/07/27 03:25:31;;;;;;;6.33;1.80;;;;;;;17.53;100.00;99127.47;5116836;28;20217;-78
2022/07/27 03:27:59;;;;;;;7.70;1.83;;;;;;;17.54;100.00;99126.50;5117047;28;20195;-78
2022/07/27 03:30:31;;;;;;;5.17;1.53;;;;;;;17.49;100.00;99134.13;5116848;27;20305;-78
2022/07/27 03:33:00;;;;;;;3.13;1.50;;;;;;;17.35;100.00;99137.22;5113913;28;20230;-78
2022/07/27 03:35:28;;;;;;;4.30;1.50;;;;;;;17.23;100.00;99133.84;5109934;28;20202;-78
2022/07/27 03:37:57;;;;;;;3.90;1.50;;;;;;;17.25;100.00;99139.06;5116773;28;20202;-77
2022/07/27 03:40:28;;;;;;;5.13;1.87;;;;;;;17.19;100.00;99131.59;5116777;28;20195;-78
2022/07/27 03:42:56;;;;;;;4.17;1.50;;;;;;;17.19;100.00;99129.78;5113140;28;20191;-78
2022/07/27 03:45:25;;;;;;;5.53;1.80;;;;;;;17.05;100.00;99130.16;5113307;28;20225;-78
2022/07/27 03:47:53;;;;;;;6.43;1.77;;;;;;;17.00;100.00;99133.28;5111047;28;20199;-78
2022/07/27 03:50:22;;;;;;;7.90;1.80;;;;;;;17.16;100.00;99140.75;5115474;28;20223;-78
2022/07/27 03:52:51;;;;;;;4.87;1.50;;;;;;;16.88;100.00;99131.69;5116472;28;20223;-78
2022/07/27 03:55:21;;;;;;;6.80;1.83;;;;;;;16.85;100.00;99135.50;5114343;28;20214;-78
2022/07/27 03:57:51;;;;;;;6.67;1.90;;;;;;;17.03;100.00;99140.19;5113587;28;20207;-78
2022/07/27 04:00:19;;;;;;;5.23;1.57;;;;;;;17.17;100.00;99151.31;5116405;27;20642;-81
2022/07/27 04:02:48;;;;;;;5.53;1.80;;;;;;;17.15;100.00;99147.09;5108858;28;20297;-78
2022/07/27 04:05:16;;;;;;;5.80;1.80;;;;;;;17.02;100.00;99151.88;5113508;28;20207;-78
2022/07/27 04:07:44;;;;;;;6.83;2.20;;;;;;;16.81;100.00;99157.34;5116028;28;20199;-78
2022/07/27 04:10:13;;;;;;;9.33;2.90;;;;;;;16.70;100.00;99157.44;5112102;28;20210;-77
2022/07/27 04:12:42;;;;;;;8.23;1.93;;;;;;;16.76;100.00;99162.22;5110939;28;20642;-78
2022/07/27 04:15:13;;;;;;;5.20;1.60;;;;;;;16.71;100.00;99157.31;5116897;28;20198;-79
2022/07/27 04:17:41;;;;;;;9.23;2.30;;;;;;;16.74;100.00;99162.38;5116693;28;20637;-78
2022/07/27 04:20:23;;;;;;;4.93;1.97;;;;;;;16.84;100.00;99159.72;5115791;28;20205;-78
2022/07/27 04:22:51;;;;;;;7.67;2.30;;;;;;;17.05;100.00;99162.28;5116701;28;20219;-78
2022/07/27 04:25:20;;;;;;;7.40;1.80;;;;;;;16.91;100.00;99165.38;5118376;28;20195;-78
2022/07/27 04:27:53;;;;;;;5.10;1.77;;;;;;;16.87;100.00;99168.31;5118025;28;20194;-77
2022/07/27 04:30:22;;;;;;;6.13;1.80;;;;;;;16.68;100.00;99173.63;5118209;28;20199;-78
2022/07/27 04:32:50;;;;;;;8.63;1.80;;;;;;;16.75;100.00;99177.44;5115895;28;20205;-78
2022/07/27 04:35:19;;;;;;;6.07;2.10;;;;;;;16.73;100.00;99179.41;5114186;28;20202;-78
2022/07/27 04:37:54;;;;;;;7.70;2.33;;;;;;;16.80;100.00;99177.91;5118277;28;20193;-78
2022/07/27 04:40:29;;;;;;;3.70;1.83;;;;;;;16.93;100.00;99179.47;5121473;28;20198;-78
2022/07/27 04:43:00;;;;;;;7.73;2.00;;;;;;;16.80;100.00;99175.22;5115497;28;20222;-78
2022/07/27 04:45:29;;;;;;;6.53;2.30;;;;;;;16.78;100.00;99177.16;5119318;28;20199;-78
2022/07/27 04:47:57;;;;;;;8.00;1.93;;;;;;;16.92;100.00;99178.63;5122108;28;20191;-78
2022/07/27 04:50:26;;;;;;;8.37;2.07;;;;;;;16.90;100.00;99174.41;5117325;28;20697;-78
2022/07/27 04:52:55;;;;;;;6.50;2.27;;;;;;;16.96;100.00;99182.69;5112059;28;20195;-78
2022/07/27 04:55:23;;;;;;;7.63;1.90;;;;;;;16.98;100.00;99183.41;5112094;28;20210;-78
2022/07/27 04:57:51;;;;;;;8.23;2.00;;;;;;;16.88;100.00;99180.69;5115303;28;20577;-78
2022/07/27 05:00:22;;;;;;;6.13;1.90;;;;;;;17.04;100.00;99184.69;5116973;28;20275;-80
2022/07/27 05:02:50;;;;;;;8.40;2.07;;;;;;;17.09;100.00;99177.09;5076266;28;20215;-78
2022/07/27 05:05:18;;;;;;;5.23;2.10;;;;;;;17.30;100.00;99182.31;5073135;28;20204;-78
2022/07/27 05:07:47;;;;;;;6.83;1.80;;;;;;;17.29;100.00;99178.81;5070606;28;20228;-77
2022/07/27 05:10:15;;;;;;;5.83;1.63;;;;;;;17.28;100.00;99179.78;5071804;28;20204;-78
2022/07/27 05:12:48;;;;;;;5.97;1.90;;;;;;;17.25;100.00;99172.03;5069545;28;20200;-78
2022/07/27 05:15:16;;;;;;;8.67;1.87;;;;;;;17.21;100.00;99183.16;5073421;28;20196;-78
2022/07/27 05:17:46;;;;;;;6.80;2.00;;;;;;;17.14;100.00;99181.03;5069611;28;20254;-78
2022/07/27 05:20:15;;;;;;;8.03;1.70;;;;;;;17.09;100.00;99182.44;5074603;28;20284;-78
2022/07/27 05:22:44;;;;;;;5.53;1.60;;;;;;;17.33;100.00;99182.88;5073447;28;20750;-79
2022/07/27 05:25:12;;;;;;;4.33;2.07;;;;;;;17.20;100.00;99182.31;5071094;28;20192;-78
2022/07/27 05:27:40;;;;;;;4.60;1.50;;;;;;;17.36;100.00;99189.78;5090434;28;20241;-80
2022/07/27 05:30:24;;;;;;;5.83;1.90;;;;;;;17.45;100.00;99188.94;5119811;28;20198;-78
2022/07/27 05:32:54;;;;;;;3.80;1.47;;;;;;;17.47;100.00;99192.34;5121303;27;20248;-79
2022/07/27 05:35:22;;;;;;;8.03;1.97;;;;;;;16.90;100.00;99198.47;5121728;27;20198;-78
2022/07/27 05:37:51;;;;;;;4.40;1.60;;;;;;;17.10;100.00;99202.88;5110957;28;20191;-78
2022/07/27 05:40:19;;;;;;;4.47;1.70;;;;;;;17.05;100.00;99205.09;5121164;27;20230;-78
2022/07/27 05:42:49;;;;;;;7.00;1.53;;;;;;;17.11;100.00;99205.41;5112944;28;20187;-79
2022/07/27 05:45:18;;;;;;;5.07;1.40;;;;;;;17.13;100.00;99207.94;5119728;28;20191;-79
2022/07/27 05:47:46;;;;;;;5.83;1.60;;;;;;;17.31;100.00;99208.13;5120899;27;20227;-78
2022/07/27 05:50:16;;;;;;;6.20;1.30;;;;;;;17.10;100.00;99209.06;5116580;27;20195;-79
2022/07/27 05:52:45;;;;;;;6.37;2.00;;;;;;;16.92;100.00;99209.88;5122892;27;20223;-78
2022/07/27 05:55:13;;;;;;;5.30;1.83;;;;;;;16.78;100.00;99213.75;5120676;27;20205;-78
2022/07/27 05:57:42;;;;;;;5.30;1.47;;;;;;;17.09;100.00;99215.41;5119963;28;20201;-78
2022/07/27 06:00:12;;;;;;;5.30;1.47;;;;;;;17.09;100.00;99209.22;5118778;28;20194;-78
2022/07/27 06:02:41;;;;;;;5.10;1.43;;;;;;;17.18;100.00;99213.75;5119141;28;20658;-78
2022/07/27 06:05:10;;;;;;;6.03;1.60;;;;;;;17.20;100.00;99224.31;5118174;28;20205;-79
2022/07/27 06:08:02;;;;;;;3.77;1.57;;;;;;;17.41;100.00;99223.19;5099833;28;20244;-79
2022/07/27 06:10:33;;;;;;;4.90;1.77;;;;;;;17.29;100.00;99228.84;5116816;28;20274;-78
2022/07/27 06:13:04;;;;;;;5.73;1.30;;;;;;;17.27;100.00;99233.44;5117314;27;20195;-79
2022/07/27 06:15:33;;;;;;;8.03;1.60;;;;;;;17.47;100.00;99229.84;5114014;28;20202;-78
2022/07/27 06:18:02;;;;;;;4.77;1.37;;;;;;;17.33;100.00;99235.59;5116918;28;20206;-78
2022/07/27 06:20:31;;;;;;;4.33;1.50;;;;;;;17.50;100.00;99229.53;5116701;28;20197;-79
2022/07/27 06:23:02;;;;;;;6.37;1.53;;;;;;;17.42;100.00;99237.44;5116507;28;20198;-79
2022/07/27 06:25:36;;;;;;;3.47;1.30;;;;;;;17.52;100.00;99232.91;5116207;28;20187;-79
2022/07/27 06:28:05;;;;;;;3.47;1.40;;;;;;;17.58;100.00;99240.41;5116095;28;20210;-79
2022/07/27 06:30:34;;;;;;;5.27;1.40;;;;;;;17.60;100.00;99235.75;5080748;28;20634;-78
2022/07/27 06:33:04;;;;;;;3.77;1.60;;;;;;;17.73;100.00;99241.69;5116533;28;20233;-78
2022/07/27 06:35:33;;;;;;;5.33;1.43;;;;;;;17.83;100.00;99248.88;5115341;28;20209;-78
2022/07/27 06:38:05;;;;;;;6.13;1.50;;;;;;;17.85;100.00;99252.25;5111502;28;20191;-78
2022/07/27 06:40:34;;;;;;;5.03;1.53;;;;;;;18.02;100.00;99248.88;5115484;28;20198;-79
2022/07/27 06:43:03;;;;;;;3.53;1.23;;;;;;;17.81;100.00;99243.66;5110071;28;20191;-78
2022/07/27 06:45:31;;;;;;;5.27;1.30;;;;;;;17.97;100.00;99243.94;5112776;28;20187;-78
2022/07/27 06:47:59;;;;;;;5.43;1.70;;;;;;;17.89;100.00;99241.13;5108026;28;20226;-78
2022/07/27 06:50:27;;;;;;;5.07;1.40;;;;;;;18.08;100.00;99242.94;5112608;28;20199;-79
2022/07/27 06:52:56;;;;;;;5.40;1.43;;;;;;;18.05;100.00;99245.03;5112678;28;20191;-78
2022/07/27 06:55:25;;;;;;;4.70;1.57;;;;;;;18.40;100.00;99244.41;5109917;28;20207;-79
2022/07/27 06:57:54;;;;;;;5.50;1.47;;;;;;;18.56;100.00;99242.81;5112205;28;20195;-78
2022/07/27 07:00:22;;;;;;;5.47;1.60;;;;;;;18.30;100.00;99247.97;5110275;28;20194;-78
2022/07/27 07:02:53;;;;;;;4.67;1.30;;;;;;;18.34;100.00;99242.31;5112861;28;20197;-79
2022/07/27 07:05:21;;;;;;;9.23;1.60;;;;;;;18.29;100.00;99232.88;5112171;28;20207;-78
2022/07/27 07:07:50;;;;;;;5.27;1.57;;;;;;;18.29;100.00;99240.91;5110289;28;20222;-78
2022/07/27 07:10:18;;;;;;;3.37;1.30;;;;;;;18.42;100.00;99234.38;5114643;27;20203;-78
2022/07/27 07:12:54;;;;;;;6.63;1.83;;;;;;;17.92;100.00;99240.84;5112928;28;20203;-78
2022/07/27 07:15:25;;;;;;;3.67;1.27;;;;;;;18.01;100.00;99239.13;5115251;27;20191;-78
2022/07/27 07:17:54;;;;;;;4.40;1.50;;;;;;;18.08;100.00;99239.41;5113196;28;20258;-79
2022/07/27 07:20:23;;;;;;;5.90;1.40;;;;;;;18.09;100.00;99244.63;5111798;28;20191;-79
2022/07/27 07:22:52;;;;;;;2.43;1.23;;;;;;;18.32;100.00;99237.09;5097281;28;20207;-79
2022/07/27 07:25:21;;;;;;;6.70;1.30;;;;;;;18.37;100.00;99240.19;5094619;28;20257;-79
2022/07/27 07:27:49;;;;;;;5.30;1.43;;;;;;;18.56;100.00;99248.16;5092788;28;20212;-79
2022/07/27 07:30:19;;;;;;;3.83;1.47;;;;;;;18.59;100.00;99241.66;5092520;28;20200;-78
2022/07/27 07:32:48;;;;;;;4.17;1.30;;;;;;;18.69;100.00;99247.88;5092988;28;20195;-79
2022/07/27 07:35:17;;;;;;;4.37;1.37;;;;;;;18.58;100.00;99245.34;5087114;28;20214;-79
2022/07/27 07:37:45;;;;;;;4.83;1.50;;;;;;;18.56;100.00;99250.00;5092528;28;20191;-78
2022/07/27 07:40:18;;;;;;;2.60;1.30;;;;;;;18.85;100.00;99253.44;5094942;28;20218;-78
2022/07/27 07:43:07;;;;;;;1.93;1.00;;;;;;;18.99;100.00;99245.88;5092404;28;20196;-79
2022/07/27 07:45:38;;;;;;;5.07;1.40;;;;;;;18.99;100.00;99246.72;5090979;28;20195;-79
2022/07/27 07:48:18;;;;;;;3.63;1.30;;;;;;;19.16;100.00;99245.94;5091916;28;20310;-79
2022/07/27 07:50:46;;;;;;;2.07;1.00;;;;;;;19.25;100.00;99246.88;5097141;27;20646;-79
2022/07/27 07:53:20;;;;;;;4.53;1.30;;;;;;;19.26;100.00;99245.88;5092696;28;20217;-79
2022/07/27 07:55:49;;;;;;;2.90;1.17;;;;;;;19.12;100.00;99247.25;5096019;28;20199;-79
2022/07/27 07:58:18;;;;;;;4.80;1.43;;;;;;;19.31;100.00;99250.81;5096082;28;20203;-79
2022/07/27 08:00:49;;;;;;;4.43;1.30;;;;;;;19.21;100.00;99247.34;5093338;28;20621;-79
2022/07/27 08:03:19;;;;;;;3.47;1.40;;;;;;;19.36;100.00;99252.03;5095834;28;20666;-79
2022/07/27 08:05:47;;;;;;;2.37;0.93;;;;;;;19.68;100.00;99250.69;5093769;28;20223;-79
2022/07/27 08:08:17;;;;;;;5.63;1.47;;;;;;;19.62;100.00;99257.53;5092973;28;20212;-79
2022/07/27 08:10:45;;;;;;;4.40;1.00;;;;;;;19.77;100.00;99259.66;5090498;28;20219;-79
2022/07/27 08:13:14;;;;;;;3.93;1.43;;;;;;;19.98;99.36;99261.06;5093092;28;20681;-79
2022/07/27 08:15:51;;;;;;;3.10;1.00;;;;;;;19.90;99.38;99244.00;5093096;28;20229;-79
2022/07/27 08:18:20;;;;;;;1.93;1.10;;;;;;;20.29;96.50;99248.00;5091518;28;20192;-79
2022/07/27 08:20:49;;;;;;;4.63;1.53;;;;;;;19.96;96.68;99246.91;5094237;28;20196;-79
2022/07/27 08:23:17;;;;;;;5.07;1.13;;;;;;;20.08;95.07;99249.38;5095236;28;20200;-79
2022/07/27 08:25:45;;;;;;;3.70;1.00;;;;;;;20.34;94.73;99247.50;5094495;28;20207;-79
2022/07/27 08:28:13;;;;;;;4.63;1.30;;;;;;;20.29;94.18;99247.16;5093996;28;20298;-79
2022/07/27 08:30:43;;;;;;;5.30;1.63;;;;;;;20.38;93.56;99245.38;5085944;28;20249;-79
2022/07/27 08:33:13;;;;;;;4.63;1.40;;;;;;;20.48;93.35;99246.13;5092627;28;20203;-79
2022/07/27 08:35:41;;;;;;;3.90;1.13;;;;;;;20.47;93.06;99247.13;5093891;28;20195;-79
2022/07/27 08:38:09;;;;;;;3.73;1.43;;;;;;;20.11;95.67;99249.03;5091364;28;20210;-79
2022/07/27 08:40:39;;;;;;;4.00;1.20;;;;;;;20.01;96.79;99241.91;5092635;28;20275;-79
2022/07/27 08:43:14;;;;;;;4.73;1.30;;;;;;;19.64;98.80;99246.63;5093463;28;20283;-79
2022/07/27 08:45:54;;;;;;;4.97;1.30;;;;;;;19.78;99.26;99254.13;5092491;28;20375;-79
2022/07/27 08:48:24;;;;;;;5.60;1.03;;;;;;;19.78;98.98;99242.53;5094921;28;20215;-79
2022/07/27 08:50:53;;;;;;;5.63;1.37;;;;;;;19.61;96.92;99249.63;5093537;28;20699;-79
2022/07/27 08:53:22;;;;;;;3.67;1.30;;;;;;;19.61;96.25;99249.63;5093598;28;20199;-79
2022/07/27 08:55:50;;;;;;;8.00;1.53;;;;;;;19.68;95.57;99245.31;5089536;28;20191;-79
2022/07/27 08:58:19;;;;;;;4.20;1.17;;;;;;;20.17;93.89;99234.94;5094608;28;20196;-79
2022/07/27 09:00:49;;;;;;;4.57;1.30;;;;;;;20.69;90.60;99246.59;5094034;28;20278;-79
2022/07/27 09:03:20;;;;;;;6.63;1.57;;;;;;;20.95;88.45;99243.00;5090899;28;20210;-79
2022/07/27 09:05:52;;;;;;;4.73;1.50;;;;;;;21.63;83.48;99240.19;5093411;28;20206;-79
2022/07/27 09:08:22;;;;;;;4.83;1.10;;;;;;;21.21;80.89;99241.06;5092101;28;20223;-78
2022/07/27 09:10:54;;;;;;;3.37;1.20;;;;;;;21.60;81.42;99237.78;5091330;28;20187;-79
2022/07/27 09:13:26;;;;;;;4.00;1.33;;;;;;;22.16;76.78;99242.38;5092344;28;20663;-79
2022/07/27 09:15:57;;;;;;;5.80;1.40;;;;;;;22.16;74.23;99241.56;5093890;28;20187;-79
2022/07/27 09:18:46;;;;;;;6.28;1.48;;;;;;;22.37;73.90;99233.75;5092725;28;20196;-80
2022/07/27 09:21:18;;;;;;;4.60;1.20;;;;;;;22.15;75.01;99247.97;5092898;28;20203;-79
2022/07/27 09:23:49;;;;;;;2.83;1.00;;;;;;;21.63;77.82;99251.81;5093950;28;20199;-79
2022/07/27 09:26:19;;;;;;;4.75;1.45;;;;;;;21.75;79.80;99246.94;5086547;28;20198;-78
2022/07/27 09:29:06;;;;;;;3.90;1.13;;;;;;;21.29;82.02;99245.66;5093258;28;20226;-78
2022/07/27 09:31:41;;;;;;;8.33;1.60;;;;;;;21.10;81.90;99254.81;5088679;28;20199;-79
2022/07/27 09:34:10;;;;;;;7.43;1.53;;;;;;;20.74;85.18;99259.53;5093708;28;20615;-79
2022/07/27 09:36:52;;;;;;;3.57;1.67;;;;;;;21.15;81.75;99242.56;5092595;28;20208;-79
2022/07/27 09:39:22;;;;;;;9.30;4.20;;;;;;;21.44;78.65;99249.41;5093083;28;20734;-79
2022/07/27 09:41:54;;;;;;;7.13;2.67;;;;;;;21.71;77.33;99245.56;5093249;28;20275;-79
2022/07/27 09:44:33;;;;;;;3.20;1.20;;;;;;;22.13;73.27;99241.91;5093157;28;20268;-79
2022/07/27 09:47:21;;;;;;;4.10;1.43;;;;;;;22.46;69.82;99237.28;5096253;27;20200;-79
2022/07/27 09:49:49;;;;;;;5.03;1.30;;;;;;;22.77;67.70;99242.75;5089980;28;20306;-79
2022/07/27 09:52:25;;;;;;;5.35;1.50;;;;;;;22.92;65.60;99240.22;5088317;28;20246;-79
2022/07/27 09:54:53;;;;;;;2.13;1.30;;;;;;;22.69;66.85;99232.84;5087179;28;20285;-79
2022/07/27 09:57:22;;;;;;;4.63;1.50;;;;;;;22.28;70.82;99232.09;5092731;28;20195;-79
2022/07/27 10:00:08;;;;;;;3.33;1.20;;;;;;;22.21;69.50;99231.09;5093639;28;20196;-79
2022/07/27 10:02:37;;;;;;;8.20;1.63;;;;;;;22.00;68.33;99240.53;5090950;28;20196;-79
2022/07/27 10:05:06;;;;;;;5.63;1.35;;;;;;;21.75;68.24;99244.22;5092462;28;20230;-79
2022/07/27 10:07:38;;;;;;;4.32;1.20;;;;;;;21.65;71.07;99243.56;5093650;28;20199;-79
2022/07/27 10:10:06;;;;;;;4.40;1.42;;;;;;;;;;5092515;28;20222;-78
2022/07/27 10:12:35;;;;;;;7.43;1.80;;;;;;;22.39;65.52;99239.84;5092523;28;20210;-79
2022/07/27 10:15:04;;;;;;;2.78;1.20;;;;;;;23.16;63.63;99234.69;5092599;28;20379;-79
2022/07/27 10:17:32;;;;;;;5.37;1.33;;;;;;;23.36;61.78;99233.25;5089317;28;20200;-79
2022/07/27 10:20:07;;;;;;;3.83;1.42;;;;;;;23.56;57.66;99230.91;5090176;28;20234;-79
2022/07/27 10:23:06;;;;;;;2.63;1.00;;;;;;;24.18;56.98;99238.88;5093531;28;20274;-79
2022/07/27 10:25:34;;;;;;;4.25;1.40;;;;;;;23.99;56.76;99232.13;5090907;28;20242;-79
2022/07/27 10:28:11;;;;;;;3.72;1.27;;;;;;;23.87;55.83;99221.94;5093250;28;20293;-79
2022/07/27 10:30:40;;;;;;;5.13;1.30;;;;;;;23.95;57.86;99224.56;5093190;28;20215;-79
2022/07/27 10:33:45;;;;;;;2.40;1.05;;;;;;;23.69;56.90;99233.88;5092827;28;20199;-79
2022/07/27 10:36:16;;;;;;;4.30;1.08;;;;;;;23.94;56.43;99234.56;5088803;28;20211;-79
2022/07/27 10:38:48;;;;;;;1.77;1.13;;;;;;;23.78;56.85;99239.25;5092144;28;20661;-79
2022/07/27 10:41:24;;;;;;;4.80;1.33;;;;;;;24.33;55.73;99230.00;5093236;28;20210;-79
2022/07/27 10:44:25;;;;;;;2.78;1.10;;;;;;;24.20;56.75;99233.28;5092656;28;20191;-79
2022/07/27 10:46:55;;;;;;;3.83;1.25;;;;;;;24.83;52.67;99230.09;5090401;28;20199;-79
2022/07/27 10:49:26;;;;;;;3.67;1.20;;;;;;;25.13;54.67;99230.09;5092901;28;20720;-79
2022/07/27 10:51:56;;;;;;;4.40;1.27;;;;;;;24.50;54.45;99229.63;5100850;28;20253;-79
2022/07/27 10:54:31;;;;;;;3.88;1.40;;;;;;;23.78;57.24;99231.97;5115797;27;20278;-79
2022/07/27 10:57:02;;;;;;;3.78;1.20;;;;;;;24.54;56.51;99232.81;5114427;27;20288;-79
2022/07/27 10:59:49;;;;;;;2.65;1.20;;;;;;;24.07;56.80;99233.09;5094746;28;20665;-79
2022/07/27 11:02:40;;;;;;;3.42;1.20;;;;;;;24.64;57.04;99214.41;5113218;28;20244;-79
2022/07/27 11:05:10;;;;;;;4.35;1.30;;;;;;;25.21;53.29;99216.44;5111058;28;20300;-80
2022/07/27 11:07:58;;;;;;;5.53;1.67;;;;;;;25.93;50.09;99220.94;5113270;28;20195;-79
2022/07/27 11:10:48;;;;;;;5.03;1.23;;;;;;;25.11;49.71;99224.88;5112782;28;20750;-79
2022/07/27 11:13:18;;;;;;;3.47;1.10;;;;;;;23.48;53.71;99233.66;5113082;28;20273;-79
2022/07/27 11:15:52;;;;;;;2.95;1.10;;;;;;;23.69;56.06;99241.16;5109060;28;20203;-79
2022/07/27 11:18:34;;;;;;;2.83;1.05;;;;;;;23.73;54.68;99245.19;5108172;28;20199;-78
2022/07/27 11:21:17;;;;;;;3.67;1.48;;;;;;;23.87;54.88;99238.16;5111922;28;20602;-80
2022/07/27 11:23:55;;;;;;;2.20;1.40;;;;;;;24.44;54.06;99234.97;5114572;28;20190;-79
2022/07/27 11:26:27;;;;;;;4.63;1.45;;;;;;;24.65;54.35;99235.06;5119611;27;20609;-79
2022/07/27 11:28:56;;;;;;;3.33;1.05;;;;;;;25.34;51.53;99237.44;5117169;28;20218;-79
2022/07/27 11:31:24;;;;;;;1.90;1.00;;;;;;;24.83;49.35;99240.94;5115492;28;20241;-79
2022/07/27 11:34:16;;;;;;;2.63;1.02;;;;;;;25.62;48.01;99230.22;5116149;28;20195;-79
2022/07/27 11:36:47;;;;;;;4.68;1.05;;;;;;;24.52;49.73;99237.59;5114341;28;20243;-79
2022/07/27 11:39:21;;;;;;;2.75;0.90;;;;;;;24.64;51.48;99233.38;5114969;28;20649;-79
2022/07/27 11:42:14;;;;;;;3.55;1.27;;;;;;;24.35;52.67;99231.50;5116207;28;20194;-79
2022/07/27 11:44:48;;;;;;;2.75;1.00;;;;;;;24.26;52.82;99221.72;5118871;27;20239;-79
2022/07/27 11:47:19;;;;;;;2.15;1.10;;;;;;;24.14;53.25;99228.63;5118938;27;20673;-79